Kandalaksha, Russia
Current Conditions -  °F | °C
As of 11:50 PM on Friday 24 Oct 2014 (Local Time) from EFKS Reporting Station
Light Snow Light Snow  
Wind Chill: 17°   Ceiling: 900
Heat Index: 27°   Visibility: 1.9mi
Dew Point: 25°   Wind: 10mph
Humidity: 93%   Direction: 170°S
Pressure: 30.12"   Gusts: NA
Location:  67.16°N, 32.41°E
Report Text: EFKS 242050Z AUTO 17009KT 3100 -SN BKN009 M03/M04 Q1020
Loading
Personal Weather Stations






























Interactive Weather Map
Tropical Storm Tracking
New forecast layout! Learn more

10-Day Weather Forecast

Advertisements
Track Severe Weather on mobile